createdAt,value
2022-11-10T00:02:00.129Z,20.77
2022-11-10T00:09:42.774Z,20.73
2022-11-10T00:17:14.983Z,20.78
2022-11-10T00:24:52.006Z,20.75
2022-11-10T00:32:30.974Z,20.7
2022-11-10T00:40:02.309Z,20.73
2022-11-10T00:47:32.067Z,20.77
2022-11-10T00:55:02.848Z,20.85
2022-11-10T01:02:41.579Z,20.85
2022-11-10T01:10:08.137Z,20.82
2022-11-10T01:17:44.036Z,20.79
2022-11-10T01:25:15.012Z,20.96
2022-11-10T01:32:51.087Z,20.85
2022-11-10T01:40:40.461Z,20.83
2022-11-10T01:48:27.162Z,20.73
2022-11-10T01:56:32.018Z,20.67
2022-11-10T02:04:40.274Z,20.71
2022-11-10T02:12:14.690Z,20.78
2022-11-10T02:20:04.801Z,20.66
2022-11-10T02:27:43.212Z,20.63
2022-11-10T02:35:25.823Z,20.59
2022-11-10T02:42:56.395Z,20.58
2022-11-10T02:50:41.691Z,20.58
2022-11-10T02:58:26.083Z,20.58
2022-11-10T03:06:01.930Z,20.56
2022-11-10T03:14:02.452Z,20.61
2022-11-10T03:21:24.231Z,20.52
2022-11-10T03:29:00.333Z,20.57
2022-11-10T03:36:17.946Z,20.57
2022-11-10T03:44:01.925Z,20.57
2022-11-10T03:51:24.539Z,20.54
2022-11-10T03:59:09.600Z,20.55
2022-11-10T04:06:37.772Z,20.5
2022-11-10T04:14:17.707Z,20.5
2022-11-10T04:21:46.761Z,20.49
2022-11-10T04:29:30.992Z,20.61
2022-11-10T04:37:00.336Z,20.47
2022-11-10T04:44:40.339Z,20.45
2022-11-10T04:52:32.313Z,20.41
2022-11-10T05:00:16.266Z,20.47
2022-11-10T05:07:52.655Z,20.6
2022-11-10T05:15:30.182Z,20.65
2022-11-10T05:23:16.618Z,20.67
2022-11-10T05:30:58.145Z,20.66
2022-11-10T05:38:40.435Z,20.6
2022-11-10T05:46:11.747Z,20.68
2022-11-10T05:53:52.077Z,20.54
2022-11-10T06:01:37.741Z,20.56
2022-11-10T06:09:17.322Z,20.52
2022-11-10T06:16:54.305Z,20.57
2022-11-10T06:23:50.865Z,20.67
2022-11-10T06:30:21.702Z,20.87
2022-11-10T06:36:56.875Z,21.03
2022-11-10T06:43:39.941Z,21.71
2022-11-10T06:50:10.005Z,22.03
2022-11-10T06:56:47.928Z,22.22
2022-11-10T07:03:20.327Z,22.54
2022-11-10T07:09:57.182Z,22.75
2022-11-10T07:16:47.214Z,22.89
2022-11-10T07:23:37.067Z,22.87
2022-11-10T07:30:07.999Z,22.79
2022-11-10T07:36:50.076Z,22.76
2022-11-10T07:43:17.291Z,22.72
2022-11-10T07:49:53.907Z,22.61
2022-11-10T07:56:21.777Z,22.53
2022-11-10T08:03:14.116Z,22.39
2022-11-10T08:09:54.124Z,22.44
2022-11-10T08:16:28.985Z,22.44
2022-11-10T08:23:04.047Z,22.31
2022-11-10T08:29:33.968Z,22.32
2022-11-10T08:36:14.040Z,22.43
2022-11-10T08:42:56.950Z,22.28
2022-11-10T08:49:51.948Z,22.19
2022-11-10T08:57:48.886Z,21.81
2022-11-10T09:05:32.400Z,21.7
2022-11-10T09:12:56.258Z,21.69
2022-11-10T09:19:39.953Z,21.97
2022-11-10T09:26:16.972Z,22.01
2022-11-10T09:33:04.394Z,21.99
2022-11-10T09:40:42.112Z,21.79
2022-11-10T09:49:00.430Z,21.62
2022-11-10T09:57:24.589Z,21.53
2022-11-10T10:05:34.431Z,21.39
2022-11-10T10:13:47.328Z,21.37
2022-11-10T10:22:12.706Z,21.33
2022-11-10T10:30:24.543Z,21.34
2022-11-10T10:38:21.378Z,21.33
2022-11-10T10:46:18.036Z,21.34
2022-11-10T10:54:28.894Z,21.36
2022-11-10T11:02:41.166Z,21.31
2022-11-10T11:10:39.850Z,21.24
2022-11-10T11:18:36.148Z,21.23
2022-11-10T11:26:55.055Z,21.24
2022-11-10T11:35:03.319Z,21.22
2022-11-10T11:43:25.888Z,21.19
2022-11-10T11:51:42.893Z,21.1
2022-11-10T12:00:07.541Z,21.21
2022-11-10T12:08:32.550Z,21.32
2022-11-10T12:16:52.385Z,21.24
2022-11-10T12:25:19.348Z,21.26
2022-11-10T12:33:40.334Z,21.28
2022-11-10T12:41:58.053Z,21.5
2022-11-10T12:50:15.334Z,21.47
2022-11-10T12:58:28.811Z,21.48
2022-11-10T13:06:50.152Z,21.62
2022-11-10T13:15:14.260Z,21.77
2022-11-10T13:23:20.275Z,21.81
2022-11-10T13:31:43.758Z,21.83
2022-11-10T13:40:07.445Z,21.81
2022-11-10T13:48:32.773Z,21.69
2022-11-10T13:57:17.001Z,21.55
2022-11-10T14:05:28.514Z,21.5
2022-11-10T14:13:54.290Z,21.46
2022-11-10T14:22:11.182Z,21.37
2022-11-10T14:30:26.345Z,21.32
2022-11-10T14:38:39.480Z,21.3
2022-11-10T14:46:48.963Z,21.3
2022-11-10T14:55:10.160Z,21.3
2022-11-10T15:03:26.832Z,21.33
2022-11-10T15:11:31.035Z,21.28
2022-11-10T15:19:27.475Z,21.21
2022-11-10T15:27:32.536Z,21.01
2022-11-10T15:35:26.086Z,20.97
2022-11-10T15:43:15.748Z,20.88
2022-11-10T15:51:07.547Z,20.88
2022-11-10T15:58:44.565Z,20.9
2022-11-10T16:06:37.256Z,20.81
2022-11-10T16:14:31.372Z,20.77
2022-11-10T16:22:06.366Z,20.79
2022-11-10T16:29:42.000Z,20.75
2022-11-10T16:37:19.116Z,20.72
2022-11-10T16:45:07.215Z,20.73
2022-11-10T16:52:59.646Z,20.69
2022-11-10T17:00:24.817Z,20.66
2022-11-10T17:07:56.592Z,20.62
2022-11-10T17:15:22.152Z,20.6
2022-11-10T17:23:00.621Z,20.68
2022-11-10T17:30:47.605Z,20.66
2022-11-10T17:38:13.650Z,20.71
2022-11-10T17:45:59.133Z,20.69
2022-11-10T17:53:35.410Z,20.7
2022-11-10T18:01:03.835Z,20.69
2022-11-10T18:08:41.566Z,20.66
2022-11-10T18:16:28.166Z,20.66
2022-11-10T18:23:58.028Z,20.65
2022-11-10T18:31:25.023Z,20.62
2022-11-10T18:39:03.474Z,20.61
2022-11-10T18:46:34.646Z,20.59
2022-11-10T18:54:14.170Z,20.6
2022-11-10T19:01:56.539Z,20.54
2022-11-10T19:09:17.333Z,20.53
2022-11-10T19:17:02.559Z,20.55
2022-11-10T19:24:47.943Z,20.54
2022-11-10T19:32:30.061Z,20.56
2022-11-10T19:40:06.372Z,20.53
2022-11-10T19:47:46.070Z,20.54
2022-11-10T19:55:39.579Z,20.52
2022-11-10T20:03:16.375Z,20.52
2022-11-10T20:10:55.735Z,20.48
2022-11-10T20:18:38.263Z,20.45
2022-11-10T20:26:13.446Z,20.49
2022-11-10T20:34:06.017Z,20.48
2022-11-10T20:41:47.533Z,20.45
2022-11-10T20:49:31.477Z,20.4
2022-11-10T20:57:24.692Z,20.44
2022-11-10T21:05:01.006Z,20.39
2022-11-10T21:12:42.487Z,20.41
2022-11-10T21:20:22.209Z,20.39
2022-11-10T21:28:07.613Z,20.41
2022-11-10T21:35:38.108Z,20.44
2022-11-10T21:43:16.847Z,20.41
2022-11-10T21:50:50.872Z,20.4
2022-11-10T21:58:39.854Z,20.42
2022-11-10T22:06:34.366Z,20.4
2022-11-10T22:14:07.848Z,20.39
2022-11-10T22:21:54.306Z,20.34
2022-11-10T22:29:36.761Z,20.38
2022-11-10T22:37:22.166Z,20.37
2022-11-10T22:44:58.695Z,20.37
2022-11-10T22:52:35.522Z,20.37
2022-11-10T22:59:56.165Z,20.33
2022-11-10T23:07:41.087Z,20.33
2022-11-10T23:15:13.109Z,20.32
2022-11-10T23:22:43.653Z,20.34
2022-11-10T23:30:23.451Z,20.43
2022-11-10T23:38:03.674Z,20.48
2022-11-10T23:46:08.316Z,20.44
2022-11-10T23:53:40.821Z,20.5
